sensor_id;sensor_type;location;lat;lon;timestamp;P1;durP1;ratioP1;P2;durP2;ratioP2
7162;SDS011;3623;47.098;15.446;2023-06-22T00:01:27;12.27;;;11.07;;
7162;SDS011;3623;47.098;15.446;2023-06-22T00:03:54;17.33;;;11.60;;
7162;SDS011;3623;47.098;15.446;2023-06-22T00:06:21;18.30;;;10.70;;
7162;SDS011;3623;47.098;15.446;2023-06-22T00:08:48;15.30;;;12.60;;
7162;SDS011;3623;47.098;15.446;2023-06-22T00:11:15;16.03;;;11.53;;
7162;SDS011;3623;47.098;15.446;2023-06-22T00:13:42;15.80;;;12.63;;
7162;SDS011;3623;47.098;15.446;2023-06-22T00:16:09;14.37;;;13.00;;
7162;SDS011;3623;47.098;15.446;2023-06-22T00:18:38;16.70;;;13.70;;
7162;SDS011;3623;47.098;15.446;2023-06-22T00:21:05;13.63;;;11.87;;
7162;SDS011;3623;47.098;15.446;2023-06-22T00:23:32;13.70;;;12.20;;
7162;SDS011;3623;47.098;15.446;2023-06-22T00:25:59;13.97;;;11.63;;
7162;SDS011;3623;47.098;15.446;2023-06-22T00:28:26;23.13;;;14.43;;
7162;SDS011;3623;47.098;15.446;2023-06-22T00:30:54;16.67;;;12.50;;
7162;SDS011;3623;47.098;15.446;2023-06-22T00:33:21;16.97;;;13.13;;
7162;SDS011;3623;47.098;15.446;2023-06-22T00:35:49;16.67;;;12.73;;
7162;SDS011;3623;47.098;15.446;2023-06-22T00:38:17;19.07;;;12.40;;
7162;SDS011;3623;47.098;15.446;2023-06-22T00:40:45;15.30;;;13.27;;
7162;SDS011;3623;47.098;15.446;2023-06-22T00:43:12;19.07;;;14.50;;
7162;SDS011;3623;47.098;15.446;2023-06-22T00:45:39;14.13;;;12.50;;
7162;SDS011;3623;47.098;15.446;2023-06-22T00:48:06;15.87;;;14.27;;
7162;SDS011;3623;47.098;15.446;2023-06-22T00:50:34;23.67;;;13.17;;
7162;SDS011;3623;47.098;15.446;2023-06-22T00:53:04;19.83;;;14.73;;
7162;SDS011;3623;47.098;15.446;2023-06-22T00:55:33;16.23;;;14.23;;
7162;SDS011;3623;47.098;15.446;2023-06-22T00:58:04;15.90;;;13.70;;
7162;SDS011;3623;47.098;15.446;2023-06-22T01:00:35;16.83;;;13.43;;
7162;SDS011;3623;47.098;15.446;2023-06-22T01:03:02;14.20;;;11.93;;
7162;SDS011;3623;47.098;15.446;2023-06-22T01:05:34;21.40;;;13.30;;
7162;SDS011;3623;47.098;15.446;2023-06-22T01:08:08;15.30;;;13.27;;
7162;SDS011;3623;47.098;15.446;2023-06-22T01:10:41;14.50;;;13.00;;
7162;SDS011;3623;47.098;15.446;2023-06-22T01:13:16;17.07;;;13.40;;
7162;SDS011;3623;47.098;15.446;2023-06-22T01:15:49;16.87;;;13.77;;
7162;SDS011;3623;47.098;15.446;2023-06-22T01:18:19;15.87;;;12.73;;
7162;SDS011;3623;47.098;15.446;2023-06-22T01:20:51;15.30;;;12.80;;
7162;SDS011;3623;47.098;15.446;2023-06-22T01:23:25;14.10;;;11.47;;
7162;SDS011;3623;47.098;15.446;2023-06-22T01:26:02;18.00;;;13.43;;
7162;SDS011;3623;47.098;15.446;2023-06-22T01:28:42;13.33;;;12.13;;
7162;SDS011;3623;47.098;15.446;2023-06-22T01:31:11;15.77;;;12.30;;
7162;SDS011;3623;47.098;15.446;2023-06-22T01:33:41;14.60;;;12.73;;
7162;SDS011;3623;47.098;15.446;2023-06-22T01:36:10;13.53;;;12.10;;
7162;SDS011;3623;47.098;15.446;2023-06-22T01:38:38;18.43;;;13.60;;
7162;SDS011;3623;47.098;15.446;2023-06-22T01:41:06;14.57;;;13.03;;
7162;SDS011;3623;47.098;15.446;2023-06-22T01:43:33;17.73;;;13.20;;
7162;SDS011;3623;47.098;15.446;2023-06-22T01:46:03;15.40;;;12.53;;
7162;SDS011;3623;47.098;15.446;2023-06-22T01:48:30;14.43;;;12.73;;
7162;SDS011;3623;47.098;15.446;2023-06-22T01:50:58;16.40;;;12.80;;
7162;SDS011;3623;47.098;15.446;2023-06-22T01:53:25;14.57;;;12.90;;
7162;SDS011;3623;47.098;15.446;2023-06-22T01:55:52;20.37;;;13.80;;
7162;SDS011;3623;47.098;15.446;2023-06-22T01:58:20;15.13;;;12.83;;
7162;SDS011;3623;47.098;15.446;2023-06-22T02:00:50;17.10;;;14.10;;
7162;SDS011;3623;47.098;15.446;2023-06-22T02:03:25;19.20;;;11.27;;
7162;SDS011;3623;47.098;15.446;2023-06-22T02:05:56;17.23;;;11.83;;
7162;SDS011;3623;47.098;15.446;2023-06-22T02:08:30;14.73;;;13.23;;
7162;SDS011;3623;47.098;15.446;2023-06-22T02:11:01;16.20;;;12.40;;
7162;SDS011;3623;47.098;15.446;2023-06-22T02:13:29;11.80;;;10.70;;
7162;SDS011;3623;47.098;15.446;2023-06-22T02:15:58;14.80;;;13.20;;
7162;SDS011;3623;47.098;15.446;2023-06-22T02:18:27;17.43;;;14.10;;
7162;SDS011;3623;47.098;15.446;2023-06-22T02:20:54;17.60;;;13.23;;
7162;SDS011;3623;47.098;15.446;2023-06-22T02:23:21;14.53;;;13.00;;
7162;SDS011;3623;47.098;15.446;2023-06-22T02:25:48;16.67;;;13.53;;
7162;SDS011;3623;47.098;15.446;2023-06-22T02:28:15;14.23;;;12.73;;
7162;SDS011;3623;47.098;15.446;2023-06-22T02:30:42;18.23;;;13.47;;
7162;SDS011;3623;47.098;15.446;2023-06-22T02:33:09;19.70;;;14.93;;
7162;SDS011;3623;47.098;15.446;2023-06-22T02:35:38;19.23;;;14.47;;
7162;SDS011;3623;47.098;15.446;2023-06-22T02:38:10;18.90;;;16.93;;
7162;SDS011;3623;47.098;15.446;2023-06-22T02:40:37;16.03;;;14.33;;
7162;SDS011;3623;47.098;15.446;2023-06-22T02:43:04;16.80;;;15.00;;
7162;SDS011;3623;47.098;15.446;2023-06-22T02:45:31;17.73;;;13.97;;
7162;SDS011;3623;47.098;15.446;2023-06-22T02:47:58;18.27;;;15.30;;
7162;SDS011;3623;47.098;15.446;2023-06-22T02:50:25;25.40;;;15.90;;
7162;SDS011;3623;47.098;15.446;2023-06-22T02:52:54;18.73;;;15.10;;
7162;SDS011;3623;47.098;15.446;2023-06-22T02:55:21;22.60;;;15.57;;
7162;SDS011;3623;47.098;15.446;2023-06-22T02:57:49;24.43;;;15.43;;
7162;SDS011;3623;47.098;15.446;2023-06-22T03:00:18;17.70;;;15.70;;
7162;SDS011;3623;47.098;15.446;2023-06-22T03:02:47;21.10;;;16.80;;
7162;SDS011;3623;47.098;15.446;2023-06-22T03:05:15;22.97;;;17.37;;
7162;SDS011;3623;47.098;15.446;2023-06-22T03:07:43;22.40;;;18.00;;
7162;SDS011;3623;47.098;15.446;2023-06-22T03:10:13;22.00;;;17.33;;
7162;SDS011;3623;47.098;15.446;2023-06-22T03:12:40;24.47;;;16.07;;
7162;SDS011;3623;47.098;15.446;2023-06-22T03:15:10;17.40;;;15.37;;
7162;SDS011;3623;47.098;15.446;2023-06-22T03:17:38;17.60;;;15.67;;
7162;SDS011;3623;47.098;15.446;2023-06-22T03:20:06;18.67;;;16.60;;
7162;SDS011;3623;47.098;15.446;2023-06-22T03:22:36;23.07;;;17.80;;
7162;SDS011;3623;47.098;15.446;2023-06-22T03:25:03;22.17;;;16.57;;
7162;SDS011;3623;47.098;15.446;2023-06-22T03:27:36;20.60;;;16.80;;
7162;SDS011;3623;47.098;15.446;2023-06-22T03:30:03;18.23;;;16.53;;
7162;SDS011;3623;47.098;15.446;2023-06-22T03:32:31;18.60;;;16.60;;
7162;SDS011;3623;47.098;15.446;2023-06-22T03:34:58;23.97;;;15.73;;
7162;SDS011;3623;47.098;15.446;2023-06-22T03:37:26;24.43;;;19.00;;
7162;SDS011;3623;47.098;15.446;2023-06-22T03:39:53;20.63;;;16.47;;
7162;SDS011;3623;47.098;15.446;2023-06-22T03:42:20;18.00;;;16.07;;
7162;SDS011;3623;47.098;15.446;2023-06-22T03:44:48;19.83;;;16.17;;
7162;SDS011;3623;47.098;15.446;2023-06-22T03:47:15;18.50;;;16.53;;
7162;SDS011;3623;47.098;15.446;2023-06-22T03:49:43;23.73;;;15.83;;
7162;SDS011;3623;47.098;15.446;2023-06-22T03:52:10;26.83;;;17.30;;
7162;SDS011;3623;47.098;15.446;2023-06-22T03:54:37;20.03;;;17.13;;
7162;SDS011;3623;47.098;15.446;2023-06-22T03:57:04;20.03;;;16.20;;
7162;SDS011;3623;47.098;15.446;2023-06-22T03:59:31;21.20;;;15.30;;
7162;SDS011;3623;47.098;15.446;2023-06-22T04:02:00;21.17;;;17.83;;
7162;SDS011;3623;47.098;15.446;2023-06-22T04:04:27;21.20;;;17.97;;
7162;SDS011;3623;47.098;15.446;2023-06-22T04:06:54;19.90;;;15.37;;
7162;SDS011;3623;47.098;15.446;2023-06-22T04:09:21;22.53;;;15.90;;
7162;SDS011;3623;47.098;15.446;2023-06-22T04:11:48;21.83;;;18.13;;
7162;SDS011;3623;47.098;15.446;2023-06-22T04:14:15;21.03;;;16.33;;
7162;SDS011;3623;47.098;15.446;2023-06-22T04:16:42;20.17;;;15.53;;
7162;SDS011;3623;47.098;15.446;2023-06-22T04:19:10;23.20;;;16.97;;
7162;SDS011;3623;47.098;15.446;2023-06-22T04:21:41;21.20;;;17.60;;
7162;SDS011;3623;47.098;15.446;2023-06-22T04:24:09;19.90;;;15.43;;
7162;SDS011;3623;47.098;15.446;2023-06-22T04:26:36;18.93;;;17.00;;
7162;SDS011;3623;47.098;15.446;2023-06-22T04:29:03;18.77;;;16.67;;
7162;SDS011;3623;47.098;15.446;2023-06-22T04:31:31;19.53;;;16.63;;
7162;SDS011;3623;47.098;15.446;2023-06-22T04:34:01;17.63;;;15.80;;
7162;SDS011;3623;47.098;15.446;2023-06-22T04:36:34;21.43;;;17.47;;
7162;SDS011;3623;47.098;15.446;2023-06-22T04:39:06;17.50;;;15.73;;
7162;SDS011;3623;47.098;15.446;2023-06-22T04:41:35;20.33;;;16.30;;
7162;SDS011;3623;47.098;15.446;2023-06-22T04:44:08;19.17;;;17.17;;
7162;SDS011;3623;47.098;15.446;2023-06-22T04:46:36;17.73;;;15.83;;
7162;SDS011;3623;47.098;15.446;2023-06-22T04:49:05;17.60;;;15.80;;
7162;SDS011;3623;47.098;15.446;2023-06-22T04:51:40;18.30;;;16.40;;
7162;SDS011;3623;47.098;15.446;2023-06-22T04:54:09;19.63;;;17.73;;
7162;SDS011;3623;47.098;15.446;2023-06-22T04:56:36;19.80;;;16.37;;
7162;SDS011;3623;47.098;15.446;2023-06-22T04:59:06;20.10;;;17.00;;
7162;SDS011;3623;47.098;15.446;2023-06-22T05:01:33;18.33;;;16.43;;
7162;SDS011;3623;47.098;15.446;2023-06-22T05:04:01;18.60;;;16.70;;
7162;SDS011;3623;47.098;15.446;2023-06-22T05:06:30;21.57;;;16.10;;
7162;SDS011;3623;47.098;15.446;2023-06-22T05:08:58;19.70;;;17.17;;
7162;SDS011;3623;47.098;15.446;2023-06-22T05:11:25;19.17;;;14.63;;
7162;SDS011;3623;47.098;15.446;2023-06-22T05:13:53;24.43;;;16.30;;
7162;SDS011;3623;47.098;15.446;2023-06-22T05:16:20;18.10;;;16.20;;
7162;SDS011;3623;47.098;15.446;2023-06-22T05:18:50;18.50;;;15.13;;
7162;SDS011;3623;47.098;15.446;2023-06-22T05:21:21;25.00;;;17.23;;
7162;SDS011;3623;47.098;15.446;2023-06-22T05:23:49;22.40;;;16.10;;
7162;SDS011;3623;47.098;15.446;2023-06-22T05:26:19;19.40;;;15.50;;
7162;SDS011;3623;47.098;15.446;2023-06-22T05:28:46;23.50;;;16.47;;
7162;SDS011;3623;47.098;15.446;2023-06-22T05:31:14;17.10;;;15.30;;
7162;SDS011;3623;47.098;15.446;2023-06-22T05:33:42;22.43;;;16.33;;
7162;SDS011;3623;47.098;15.446;2023-06-22T05:36:10;18.57;;;16.80;;
7162;SDS011;3623;47.098;15.446;2023-06-22T05:38:37;16.67;;;14.93;;
7162;SDS011;3623;47.098;15.446;2023-06-22T05:41:05;21.43;;;15.90;;
7162;SDS011;3623;47.098;15.446;2023-06-22T05:43:33;18.40;;;15.93;;
7162;SDS011;3623;47.098;15.446;2023-06-22T05:46:01;16.23;;;14.50;;
7162;SDS011;3623;47.098;15.446;2023-06-22T05:48:28;18.40;;;15.83;;
7162;SDS011;3623;47.098;15.446;2023-06-22T05:50:55;19.77;;;16.07;;
7162;SDS011;3623;47.098;15.446;2023-06-22T05:53:22;17.90;;;15.90;;
7162;SDS011;3623;47.098;15.446;2023-06-22T05:55:50;19.00;;;16.70;;
7162;SDS011;3623;47.098;15.446;2023-06-22T05:58:17;19.30;;;15.37;;
7162;SDS011;3623;47.098;15.446;2023-06-22T06:00:45;20.03;;;15.67;;
7162;SDS011;3623;47.098;15.446;2023-06-22T06:03:13;18.60;;;16.00;;
7162;SDS011;3623;47.098;15.446;2023-06-22T06:05:42;22.63;;;15.67;;
7162;SDS011;3623;47.098;15.446;2023-06-22T06:08:10;22.10;;;17.40;;
7162;SDS011;3623;47.098;15.446;2023-06-22T06:10:37;19.13;;;16.23;;
7162;SDS011;3623;47.098;15.446;2023-06-22T06:13:04;18.37;;;15.93;;
7162;SDS011;3623;47.098;15.446;2023-06-22T06:15:31;19.93;;;15.60;;
7162;SDS011;3623;47.098;15.446;2023-06-22T06:18:00;18.50;;;14.77;;
7162;SDS011;3623;47.098;15.446;2023-06-22T06:20:30;18.43;;;16.50;;
7162;SDS011;3623;47.098;15.446;2023-06-22T06:22:57;18.93;;;14.10;;
7162;SDS011;3623;47.098;15.446;2023-06-22T06:25:24;24.10;;;16.37;;
7162;SDS011;3623;47.098;15.446;2023-06-22T06:27:51;18.20;;;15.83;;
7162;SDS011;3623;47.098;15.446;2023-06-22T06:30:19;19.57;;;15.97;;
7162;SDS011;3623;47.098;15.446;2023-06-22T06:32:47;19.50;;;14.43;;
7162;SDS011;3623;47.098;15.446;2023-06-22T06:35:16;18.70;;;16.67;;
7162;SDS011;3623;47.098;15.446;2023-06-22T06:37:44;16.97;;;14.90;;
7162;SDS011;3623;47.098;15.446;2023-06-22T06:40:12;19.03;;;15.17;;
7162;SDS011;3623;47.098;15.446;2023-06-22T06:42:40;17.57;;;15.27;;
7162;SDS011;3623;47.098;15.446;2023-06-22T06:45:10;17.00;;;14.80;;
7162;SDS011;3623;47.098;15.446;2023-06-22T06:47:38;17.37;;;14.40;;
7162;SDS011;3623;47.098;15.446;2023-06-22T06:50:06;18.07;;;16.17;;
7162;SDS011;3623;47.098;15.446;2023-06-22T06:52:35;16.53;;;14.33;;
7162;SDS011;3623;47.098;15.446;2023-06-22T06:55:02;16.70;;;14.10;;
7162;SDS011;3623;47.098;15.446;2023-06-22T06:57:34;17.00;;;15.40;;
7162;SDS011;3623;47.098;15.446;2023-06-22T07:00:02;18.97;;;15.27;;
7162;SDS011;3623;47.098;15.446;2023-06-22T07:02:35;26.83;;;15.17;;
7162;SDS011;3623;47.098;15.446;2023-06-22T07:05:02;16.93;;;13.13;;
7162;SDS011;3623;47.098;15.446;2023-06-22T07:07:29;17.20;;;13.20;;
7162;SDS011;3623;47.098;15.446;2023-06-22T07:09:58;25.27;;;13.37;;
7162;SDS011;3623;47.098;15.446;2023-06-22T07:12:25;16.90;;;13.30;;
7162;SDS011;3623;47.098;15.446;2023-06-22T07:14:52;17.00;;;14.40;;
7162;SDS011;3623;47.098;15.446;2023-06-22T07:17:20;19.57;;;14.17;;
7162;SDS011;3623;47.098;15.446;2023-06-22T07:19:46;20.67;;;14.60;;
7162;SDS011;3623;47.098;15.446;2023-06-22T07:22:13;17.70;;;13.20;;
7162;SDS011;3623;47.098;15.446;2023-06-22T07:24:41;15.47;;;12.23;;
7162;SDS011;3623;47.098;15.446;2023-06-22T07:27:09;19.03;;;11.40;;
7162;SDS011;3623;47.098;15.446;2023-06-22T07:29:37;21.07;;;11.93;;
7162;SDS011;3623;47.098;15.446;2023-06-22T07:32:06;13.17;;;11.40;;
7162;SDS011;3623;47.098;15.446;2023-06-22T07:34:33;16.23;;;12.50;;
7162;SDS011;3623;47.098;15.446;2023-06-22T07:37:00;17.80;;;13.20;;
7162;SDS011;3623;47.098;15.446;2023-06-22T07:39:28;15.40;;;12.30;;
7162;SDS011;3623;47.098;15.446;2023-06-22T07:41:55;15.30;;;12.70;;
7162;SDS011;3623;47.098;15.446;2023-06-22T07:44:24;16.20;;;12.80;;
7162;SDS011;3623;47.098;15.446;2023-06-22T07:46:51;18.90;;;12.67;;
7162;SDS011;3623;47.098;15.446;2023-06-22T07:49:18;18.37;;;13.27;;
7162;SDS011;3623;47.098;15.446;2023-06-22T07:51:45;17.80;;;12.10;;
7162;SDS011;3623;47.098;15.446;2023-06-22T07:54:12;17.83;;;11.73;;
7162;SDS011;3623;47.098;15.446;2023-06-22T07:56:40;14.67;;;11.97;;
7162;SDS011;3623;47.098;15.446;2023-06-22T07:59:08;15.67;;;13.00;;
7162;SDS011;3623;47.098;15.446;2023-06-22T08:01:36;13.27;;;11.90;;
7162;SDS011;3623;47.098;15.446;2023-06-22T08:04:03;17.37;;;12.27;;
7162;SDS011;3623;47.098;15.446;2023-06-22T08:06:31;13.00;;;11.33;;
7162;SDS011;3623;47.098;15.446;2023-06-22T08:08:58;14.23;;;12.37;;
7162;SDS011;3623;47.098;15.446;2023-06-22T08:11:25;15.30;;;13.73;;
7162;SDS011;3623;47.098;15.446;2023-06-22T08:13:53;13.17;;;11.80;;
7162;SDS011;3623;47.098;15.446;2023-06-22T08:16:21;20.90;;;13.47;;
7162;SDS011;3623;47.098;15.446;2023-06-22T08:18:49;14.03;;;11.73;;
7162;SDS011;3623;47.098;15.446;2023-06-22T08:21:16;14.57;;;12.90;;
7162;SDS011;3623;47.098;15.446;2023-06-22T08:23:43;20.40;;;13.27;;
7162;SDS011;3623;47.098;15.446;2023-06-22T08:26:11;17.87;;;12.77;;
7162;SDS011;3623;47.098;15.446;2023-06-22T08:28:37;16.00;;;11.27;;
7162;SDS011;3623;47.098;15.446;2023-06-22T08:31:04;12.73;;;11.60;;
7162;SDS011;3623;47.098;15.446;2023-06-22T08:33:31;18.20;;;12.47;;
7162;SDS011;3623;47.098;15.446;2023-06-22T08:36:00;14.07;;;11.60;;
7162;SDS011;3623;47.098;15.446;2023-06-22T08:38:27;12.70;;;11.37;;
7162;SDS011;3623;47.098;15.446;2023-06-22T08:40:54;12.40;;;11.23;;
7162;SDS011;3623;47.098;15.446;2023-06-22T08:43:21;13.07;;;11.73;;
7162;SDS011;3623;47.098;15.446;2023-06-22T08:45:48;14.17;;;11.67;;
7162;SDS011;3623;47.098;15.446;2023-06-22T08:48:15;14.00;;;12.50;;
7162;SDS011;3623;47.098;15.446;2023-06-22T08:50:42;13.97;;;12.43;;
7162;SDS011;3623;47.098;15.446;2023-06-22T08:53:10;14.67;;;11.77;;
7162;SDS011;3623;47.098;15.446;2023-06-22T08:55:38;14.93;;;12.33;;
7162;SDS011;3623;47.098;15.446;2023-06-22T08:58:05;16.90;;;11.93;;
7162;SDS011;3623;47.098;15.446;2023-06-22T09:00:32;16.90;;;12.80;;
7162;SDS011;3623;47.098;15.446;2023-06-22T09:03:00;13.73;;;11.80;;
7162;SDS011;3623;47.098;15.446;2023-06-22T09:05:27;11.77;;;10.73;;
7162;SDS011;3623;47.098;15.446;2023-06-22T09:07:55;12.63;;;11.03;;
7162;SDS011;3623;47.098;15.446;2023-06-22T09:10:25;11.83;;;10.80;;
7162;SDS011;3623;47.098;15.446;2023-06-22T09:12:52;13.40;;;12.23;;
7162;SDS011;3623;47.098;15.446;2023-06-22T09:15:19;14.03;;;11.77;;
7162;SDS011;3623;47.098;15.446;2023-06-22T09:17:47;12.30;;;11.00;;
7162;SDS011;3623;47.098;15.446;2023-06-22T09:20:14;16.30;;;13.10;;
7162;SDS011;3623;47.098;15.446;2023-06-22T09:22:41;15.50;;;12.10;;
7162;SDS011;3623;47.098;15.446;2023-06-22T09:25:09;12.30;;;11.10;;
7162;SDS011;3623;47.098;15.446;2023-06-22T09:27:37;12.80;;;11.60;;
7162;SDS011;3623;47.098;15.446;2023-06-22T09:30:05;13.00;;;11.60;;
7162;SDS011;3623;47.098;15.446;2023-06-22T09:32:33;12.43;;;11.23;;
7162;SDS011;3623;47.098;15.446;2023-06-22T09:35:02;14.67;;;11.27;;
7162;SDS011;3623;47.098;15.446;2023-06-22T09:37:32;12.87;;;11.60;;
7162;SDS011;3623;47.098;15.446;2023-06-22T09:39:59;13.00;;;11.40;;
7162;SDS011;3623;47.098;15.446;2023-06-22T09:42:26;12.23;;;10.40;;
7162;SDS011;3623;47.098;15.446;2023-06-22T09:44:54;12.53;;;11.33;;
7162;SDS011;3623;47.098;15.446;2023-06-22T09:47:21;14.43;;;11.87;;
7162;SDS011;3623;47.098;15.446;2023-06-22T09:49:48;13.80;;;12.30;;
7162;SDS011;3623;47.098;15.446;2023-06-22T09:52:15;17.73;;;11.80;;
7162;SDS011;3623;47.098;15.446;2023-06-22T09:54:43;15.40;;;10.67;;
7162;SDS011;3623;47.098;15.446;2023-06-22T09:57:10;16.37;;;12.50;;
7162;SDS011;3623;47.098;15.446;2023-06-22T09:59:37;11.90;;;10.80;;
7162;SDS011;3623;47.098;15.446;2023-06-22T10:02:06;12.90;;;11.60;;
7162;SDS011;3623;47.098;15.446;2023-06-22T10:04:34;14.07;;;11.23;;
7162;SDS011;3623;47.098;15.446;2023-06-22T10:07:01;14.73;;;10.57;;
7162;SDS011;3623;47.098;15.446;2023-06-22T10:09:28;18.20;;;11.20;;
7162;SDS011;3623;47.098;15.446;2023-06-22T10:11:55;17.87;;;12.50;;
7162;SDS011;3623;47.098;15.446;2023-06-22T10:14:22;13.97;;;11.60;;
7162;SDS011;3623;47.098;15.446;2023-06-22T10:16:51;17.73;;;10.90;;
7162;SDS011;3623;47.098;15.446;2023-06-22T10:19:20;13.10;;;11.93;;
7162;SDS011;3623;47.098;15.446;2023-06-22T10:21:47;13.93;;;12.30;;
7162;SDS011;3623;47.098;15.446;2023-06-22T10:24:14;12.97;;;11.70;;
7162;SDS011;3623;47.098;15.446;2023-06-22T10:26:41;14.53;;;11.17;;
7162;SDS011;3623;47.098;15.446;2023-06-22T10:29:08;13.87;;;11.27;;
7162;SDS011;3623;47.098;15.446;2023-06-22T10:31:35;11.73;;;10.63;;
7162;SDS011;3623;47.098;15.446;2023-06-22T10:34:02;13.53;;;11.30;;
7162;SDS011;3623;47.098;15.446;2023-06-22T10:36:31;13.60;;;12.00;;
7162;SDS011;3623;47.098;15.446;2023-06-22T10:38:58;14.70;;;12.00;;
7162;SDS011;3623;47.098;15.446;2023-06-22T10:41:27;13.03;;;11.30;;
7162;SDS011;3623;47.098;15.446;2023-06-22T10:43:55;10.77;;;9.73;;
7162;SDS011;3623;47.098;15.446;2023-06-22T10:46:23;13.50;;;11.43;;
7162;SDS011;3623;47.098;15.446;2023-06-22T10:48:51;17.57;;;12.10;;
7162;SDS011;3623;47.098;15.446;2023-06-22T10:51:20;12.60;;;11.47;;
7162;SDS011;3623;47.098;15.446;2023-06-22T10:53:48;13.10;;;11.77;;
7162;SDS011;3623;47.098;15.446;2023-06-22T10:56:16;16.37;;;11.83;;
7162;SDS011;3623;47.098;15.446;2023-06-22T10:58:44;12.53;;;11.20;;
7162;SDS011;3623;47.098;15.446;2023-06-22T11:01:11;13.53;;;12.33;;
7162;SDS011;3623;47.098;15.446;2023-06-22T11:03:39;13.50;;;12.40;;
7162;SDS011;3623;47.098;15.446;2023-06-22T11:06:06;12.77;;;11.53;;
7162;SDS011;3623;47.098;15.446;2023-06-22T11:08:33;14.13;;;11.40;;
7162;SDS011;3623;47.098;15.446;2023-06-22T11:11:02;14.27;;;12.73;;
7162;SDS011;3623;47.098;15.446;2023-06-22T11:13:29;12.70;;;11.43;;
7162;SDS011;3623;47.098;15.446;2023-06-22T11:15:56;13.10;;;11.83;;
7162;SDS011;3623;47.098;15.446;2023-06-22T11:18:23;12.47;;;11.20;;
7162;SDS011;3623;47.098;15.446;2023-06-22T11:20:50;14.27;;;12.90;;
7162;SDS011;3623;47.098;15.446;2023-06-22T11:23:18;15.53;;;11.90;;
7162;SDS011;3623;47.098;15.446;2023-06-22T11:25:45;14.97;;;11.20;;
7162;SDS011;3623;47.098;15.446;2023-06-22T11:28:14;14.13;;;12.63;;
7162;SDS011;3623;47.098;15.446;2023-06-22T11:30:41;13.40;;;12.20;;
7162;SDS011;3623;47.098;15.446;2023-06-22T11:33:08;13.70;;;12.40;;
7162;SDS011;3623;47.098;15.446;2023-06-22T11:35:35;12.50;;;11.43;;
7162;SDS011;3623;47.098;15.446;2023-06-22T11:38:02;13.37;;;12.27;;
7162;SDS011;3623;47.098;15.446;2023-06-22T11:40:30;11.80;;;10.63;;
7162;SDS011;3623;47.098;15.446;2023-06-22T11:42:57;13.90;;;12.40;;
7162;SDS011;3623;47.098;15.446;2023-06-22T11:45:26;15.63;;;11.43;;
7162;SDS011;3623;47.098;15.446;2023-06-22T11:47:53;13.80;;;12.33;;
7162;SDS011;3623;47.098;15.446;2023-06-22T11:50:20;13.53;;;12.40;;
7162;SDS011;3623;47.098;15.446;2023-06-22T11:52:48;19.33;;;13.67;;
7162;SDS011;3623;47.098;15.446;2023-06-22T11:55:15;12.77;;;11.47;;
7162;SDS011;3623;47.098;15.446;2023-06-22T11:57:52;13.57;;;12.23;;
7162;SDS011;3623;47.098;15.446;2023-06-22T12:00:20;17.43;;;12.57;;
7162;SDS011;3623;47.098;15.446;2023-06-22T12:02:50;13.20;;;11.80;;
7162;SDS011;3623;47.098;15.446;2023-06-22T12:05:18;15.33;;;13.33;;
7162;SDS011;3623;47.098;15.446;2023-06-22T12:07:46;13.40;;;12.17;;
7162;SDS011;3623;47.098;15.446;2023-06-22T12:10:13;20.70;;;12.47;;
7162;SDS011;3623;47.098;15.446;2023-06-22T12:12:40;13.17;;;12.07;;
7162;SDS011;3623;47.098;15.446;2023-06-22T12:15:08;16.20;;;14.50;;
7162;SDS011;3623;47.098;15.446;2023-06-22T12:17:36;13.83;;;12.60;;
7162;SDS011;3623;47.098;15.446;2023-06-22T12:20:06;15.33;;;13.87;;
7162;SDS011;3623;47.098;15.446;2023-06-22T12:22:34;14.17;;;12.60;;
7162;SDS011;3623;47.098;15.446;2023-06-22T12:25:02;19.97;;;13.70;;
7162;SDS011;3623;47.098;15.446;2023-06-22T12:27:30;14.10;;;12.80;;
7162;SDS011;3623;47.098;15.446;2023-06-22T12:29:57;16.93;;;13.00;;
7162;SDS011;3623;47.098;15.446;2023-06-22T12:32:24;13.37;;;12.20;;
7162;SDS011;3623;47.098;15.446;2023-06-22T12:34:51;15.63;;;14.03;;
7162;SDS011;3623;47.098;15.446;2023-06-22T12:37:20;14.30;;;13.10;;
7162;SDS011;3623;47.098;15.446;2023-06-22T12:39:48;15.60;;;14.00;;
7162;SDS011;3623;47.098;15.446;2023-06-22T12:42:15;17.53;;;14.97;;
7162;SDS011;3623;47.098;15.446;2023-06-22T12:44:42;15.70;;;13.97;;
7162;SDS011;3623;47.098;15.446;2023-06-22T12:47:09;15.93;;;13.33;;
7162;SDS011;3623;47.098;15.446;2023-06-22T12:49:37;13.80;;;12.20;;
7162;SDS011;3623;47.098;15.446;2023-06-22T12:52:08;14.57;;;11.77;;
7162;SDS011;3623;47.098;15.446;2023-06-22T12:54:37;15.23;;;13.73;;
7162;SDS011;3623;47.098;15.446;2023-06-22T12:57:04;15.37;;;13.33;;
7162;SDS011;3623;47.098;15.446;2023-06-22T12:59:32;15.13;;;12.23;;
7162;SDS011;3623;47.098;15.446;2023-06-22T13:01:59;13.73;;;12.30;;
7162;SDS011;3623;47.098;15.446;2023-06-22T13:04:26;14.73;;;13.07;;
7162;SDS011;3623;47.098;15.446;2023-06-22T13:06:53;18.10;;;14.17;;
7162;SDS011;3623;47.098;15.446;2023-06-22T13:09:20;15.70;;;13.67;;
7162;SDS011;3623;47.098;15.446;2023-06-22T13:11:48;21.37;;;13.33;;
7162;SDS011;3623;47.098;15.446;2023-06-22T13:14:17;13.73;;;12.33;;
7162;SDS011;3623;47.098;15.446;2023-06-22T13:16:45;17.97;;;15.10;;
7162;SDS011;3623;47.098;15.446;2023-06-22T13:19:12;15.13;;;13.60;;
7162;SDS011;3623;47.098;15.446;2023-06-22T13:21:40;13.93;;;12.40;;
7162;SDS011;3623;47.098;15.446;2023-06-22T13:24:07;15.43;;;13.30;;
7162;SDS011;3623;47.098;15.446;2023-06-22T13:26:34;16.30;;;14.00;;
7162;SDS011;3623;47.098;15.446;2023-06-22T13:29:02;13.90;;;12.60;;
7162;SDS011;3623;47.098;15.446;2023-06-22T13:31:30;20.30;;;13.70;;
7162;SDS011;3623;47.098;15.446;2023-06-22T13:33:58;16.80;;;13.27;;
7162;SDS011;3623;47.098;15.446;2023-06-22T13:36:25;14.67;;;13.20;;
7162;SDS011;3623;47.098;15.446;2023-06-22T13:38:55;14.40;;;13.00;;
7162;SDS011;3623;47.098;15.446;2023-06-22T13:41:23;15.47;;;13.90;;
7162;SDS011;3623;47.098;15.446;2023-06-22T13:43:50;18.37;;;13.20;;
7162;SDS011;3623;47.098;15.446;2023-06-22T13:46:18;15.30;;;13.90;;
7162;SDS011;3623;47.098;15.446;2023-06-22T13:48:45;15.57;;;13.70;;
7162;SDS011;3623;47.098;15.446;2023-06-22T13:51:12;17.83;;;13.33;;
7162;SDS011;3623;47.098;15.446;2023-06-22T13:53:39;15.83;;;14.10;;
7162;SDS011;3623;47.098;15.446;2023-06-22T13:56:06;14.80;;;13.50;;
7162;SDS011;3623;47.098;15.446;2023-06-22T13:58:33;14.33;;;12.70;;
7162;SDS011;3623;47.098;15.446;2023-06-22T14:01:00;13.27;;;11.93;;
7162;SDS011;3623;47.098;15.446;2023-06-22T14:03:29;21.87;;;14.60;;
7162;SDS011;3623;47.098;15.446;2023-06-22T14:05:56;16.20;;;14.80;;
7162;SDS011;3623;47.098;15.446;2023-06-22T14:08:23;18.87;;;13.80;;
7162;SDS011;3623;47.098;15.446;2023-06-22T14:10:50;17.43;;;13.67;;
7162;SDS011;3623;47.098;15.446;2023-06-22T14:13:18;15.17;;;12.83;;
7162;SDS011;3623;47.098;15.446;2023-06-22T14:15:45;13.83;;;12.73;;
7162;SDS011;3623;47.098;15.446;2023-06-22T14:18:15;16.30;;;14.27;;
7162;SDS011;3623;47.098;15.446;2023-06-22T14:20:44;15.73;;;13.67;;
7162;SDS011;3623;47.098;15.446;2023-06-22T14:23:12;13.77;;;12.47;;
7162;SDS011;3623;47.098;15.446;2023-06-22T14:25:39;17.30;;;14.30;;
7162;SDS011;3623;47.098;15.446;2023-06-22T14:28:07;16.00;;;14.43;;
7162;SDS011;3623;47.098;15.446;2023-06-22T14:30:34;14.37;;;12.87;;
7162;SDS011;3623;47.098;15.446;2023-06-22T14:33:01;14.97;;;13.13;;
7162;SDS011;3623;47.098;15.446;2023-06-22T14:35:28;15.30;;;13.20;;
7162;SDS011;3623;47.098;15.446;2023-06-22T14:37:56;16.63;;;12.73;;